sensor_id;sensor_type;location;lat;lon;timestamp;temperature;humidity
19039;DHT22;9652;49.014;12.052;2023-06-10T00:01:45;21.00;53.70
19039;DHT22;9652;49.014;12.052;2023-06-10T00:04:13;21.00;53.80
19039;DHT22;9652;49.014;12.052;2023-06-10T00:06:40;20.90;53.80
19039;DHT22;9652;49.014;12.052;2023-06-10T00:09:07;20.90;53.90
19039;DHT22;9652;49.014;12.052;2023-06-10T00:11:37;20.80;53.90
19039;DHT22;9652;49.014;12.052;2023-06-10T00:14:04;20.80;54.70
19039;DHT22;9652;49.014;12.052;2023-06-10T00:16:32;20.80;54.20
19039;DHT22;9652;49.014;12.052;2023-06-10T00:18:59;20.70;54.60
19039;DHT22;9652;49.014;12.052;2023-06-10T00:21:27;20.70;54.40
19039;DHT22;9652;49.014;12.052;2023-06-10T00:23:54;20.60;54.50
19039;DHT22;9652;49.014;12.052;2023-06-10T00:26:21;20.60;54.50
19039;DHT22;9652;49.014;12.052;2023-06-10T00:28:50;20.60;54.60
19039;DHT22;9652;49.014;12.052;2023-06-10T00:31:17;20.50;54.70
19039;DHT22;9652;49.014;12.052;2023-06-10T00:33:45;20.50;54.80
19039;DHT22;9652;49.014;12.052;2023-06-10T00:36:12;20.50;54.80
19039;DHT22;9652;49.014;12.052;2023-06-10T00:38:39;20.50;55.10
19039;DHT22;9652;49.014;12.052;2023-06-10T00:41:08;20.40;55.10
19039;DHT22;9652;49.014;12.052;2023-06-10T00:43:35;20.30;55.10
19039;DHT22;9652;49.014;12.052;2023-06-10T00:46:04;20.40;55.30
19039;DHT22;9652;49.014;12.052;2023-06-10T00:48:31;20.30;55.40
19039;DHT22;9652;49.014;12.052;2023-06-10T00:50:59;20.30;55.40
19039;DHT22;9652;49.014;12.052;2023-06-10T00:53:28;20.30;55.50
19039;DHT22;9652;49.014;12.052;2023-06-10T00:55:55;20.20;55.50
19039;DHT22;9652;49.014;12.052;2023-06-10T00:58:23;20.20;55.60
19039;DHT22;9652;49.014;12.052;2023-06-10T01:00:51;20.10;55.60
19039;DHT22;9652;49.014;12.052;2023-06-10T01:03:20;20.10;55.60
19039;DHT22;9652;49.014;12.052;2023-06-10T01:05:53;20.10;55.80
19039;DHT22;9652;49.014;12.052;2023-06-10T01:08:31;20.10;56.00
19039;DHT22;9652;49.014;12.052;2023-06-10T01:11:08;20.10;56.20
19039;DHT22;9652;49.014;12.052;2023-06-10T01:13:41;20.00;56.00
19039;DHT22;9652;49.014;12.052;2023-06-10T01:16:09;20.00;56.50
19039;DHT22;9652;49.014;12.052;2023-06-10T01:18:40;20.00;56.00
19039;DHT22;9652;49.014;12.052;2023-06-10T01:21:07;19.90;56.10
19039;DHT22;9652;49.014;12.052;2023-06-10T01:23:36;19.90;56.00
19039;DHT22;9652;49.014;12.052;2023-06-10T01:26:06;19.90;56.10
19039;DHT22;9652;49.014;12.052;2023-06-10T01:28:41;19.80;56.30
19039;DHT22;9652;49.014;12.052;2023-06-10T01:31:36;19.80;56.40
19039;DHT22;9652;49.014;12.052;2023-06-10T01:34:11;19.80;56.50
19039;DHT22;9652;49.014;12.052;2023-06-10T01:36:46;19.80;56.30
19039;DHT22;9652;49.014;12.052;2023-06-10T01:39:17;19.70;56.50
19039;DHT22;9652;49.014;12.052;2023-06-10T01:41:49;19.70;56.60
19039;DHT22;9652;49.014;12.052;2023-06-10T01:44:19;19.70;56.50
19039;DHT22;9652;49.014;12.052;2023-06-10T01:46:47;19.60;56.60
19039;DHT22;9652;49.014;12.052;2023-06-10T01:49:14;19.60;56.70
19039;DHT22;9652;49.014;12.052;2023-06-10T01:51:43;19.60;56.80
19039;DHT22;9652;49.014;12.052;2023-06-10T01:54:10;19.60;56.90
19039;DHT22;9652;49.014;12.052;2023-06-10T01:56:38;19.50;57.00
19039;DHT22;9652;49.014;12.052;2023-06-10T01:59:05;19.50;57.20
19039;DHT22;9652;49.014;12.052;2023-06-10T02:01:33;19.50;57.20
19039;DHT22;9652;49.014;12.052;2023-06-10T02:04:01;19.50;57.30
19039;DHT22;9652;49.014;12.052;2023-06-10T02:06:31;19.40;57.30
19039;DHT22;9652;49.014;12.052;2023-06-10T02:08:58;19.40;57.40
19039;DHT22;9652;49.014;12.052;2023-06-10T02:11:29;19.40;57.40
19039;DHT22;9652;49.014;12.052;2023-06-10T02:13:57;19.40;57.50
19039;DHT22;9652;49.014;12.052;2023-06-10T02:16:24;19.40;57.60
19039;DHT22;9652;49.014;12.052;2023-06-10T02:18:52;19.40;57.60
19039;DHT22;9652;49.014;12.052;2023-06-10T02:21:20;19.30;57.60
19039;DHT22;9652;49.014;12.052;2023-06-10T02:23:47;19.30;57.80
19039;DHT22;9652;49.014;12.052;2023-06-10T02:26:14;19.30;57.80
19039;DHT22;9652;49.014;12.052;2023-06-10T02:28:42;19.30;57.80
19039;DHT22;9652;49.014;12.052;2023-06-10T02:31:10;19.10;57.90
19039;DHT22;9652;49.014;12.052;2023-06-10T02:33:38;19.20;58.10
19039;DHT22;9652;49.014;12.052;2023-06-10T02:36:06;19.20;58.10
19039;DHT22;9652;49.014;12.052;2023-06-10T02:38:33;19.10;58.10
19039;DHT22;9652;49.014;12.052;2023-06-10T02:41:00;19.20;58.20
19039;DHT22;9652;49.014;12.052;2023-06-10T02:43:28;19.10;58.30
19039;DHT22;9652;49.014;12.052;2023-06-10T02:45:55;19.10;58.40
19039;DHT22;9652;49.014;12.052;2023-06-10T02:48:25;19.10;58.40
19039;DHT22;9652;49.014;12.052;2023-06-10T02:50:52;19.00;58.50
19039;DHT22;9652;49.014;12.052;2023-06-10T02:53:33;19.00;58.50
19039;DHT22;9652;49.014;12.052;2023-06-10T02:56:06;19.00;58.50
19039;DHT22;9652;49.014;12.052;2023-06-10T02:58:33;19.00;58.70
19039;DHT22;9652;49.014;12.052;2023-06-10T03:01:01;19.00;58.70
19039;DHT22;9652;49.014;12.052;2023-06-10T03:03:36;19.00;58.80
19039;DHT22;9652;49.014;12.052;2023-06-10T03:06:10;18.90;58.80
19039;DHT22;9652;49.014;12.052;2023-06-10T03:08:38;18.90;58.90
19039;DHT22;9652;49.014;12.052;2023-06-10T03:11:10;18.90;58.90
19039;DHT22;9652;49.014;12.052;2023-06-10T03:13:38;18.90;58.90
19039;DHT22;9652;49.014;12.052;2023-06-10T03:16:17;18.90;59.00
19039;DHT22;9652;49.014;12.052;2023-06-10T03:18:46;18.90;59.00
19039;DHT22;9652;49.014;12.052;2023-06-10T03:21:14;18.90;59.10
19039;DHT22;9652;49.014;12.052;2023-06-10T03:23:41;18.90;59.10
19039;DHT22;9652;49.014;12.052;2023-06-10T03:26:09;18.90;59.10
19039;DHT22;9652;49.014;12.052;2023-06-10T03:28:39;18.90;59.10
19039;DHT22;9652;49.014;12.052;2023-06-10T03:31:07;18.90;59.20
19039;DHT22;9652;49.014;12.052;2023-06-10T03:33:34;18.90;59.20
19039;DHT22;9652;49.014;12.052;2023-06-10T03:36:05;18.90;59.30
19039;DHT22;9652;49.014;12.052;2023-06-10T03:38:33;18.90;59.50
19039;DHT22;9652;49.014;12.052;2023-06-10T03:41:01;18.90;59.40
19039;DHT22;9652;49.014;12.052;2023-06-10T03:43:28;18.90;59.40
19039;DHT22;9652;49.014;12.052;2023-06-10T03:45:57;18.80;59.50
19039;DHT22;9652;49.014;12.052;2023-06-10T03:48:24;18.80;59.50
19039;DHT22;9652;49.014;12.052;2023-06-10T03:50:52;18.80;59.60
19039;DHT22;9652;49.014;12.052;2023-06-10T03:53:22;18.80;59.60
19039;DHT22;9652;49.014;12.052;2023-06-10T03:55:50;18.80;59.80
19039;DHT22;9652;49.014;12.052;2023-06-10T03:58:20;18.80;59.80
19039;DHT22;9652;49.014;12.052;2023-06-10T04:00:48;18.80;59.80
19039;DHT22;9652;49.014;12.052;2023-06-10T04:03:15;18.80;59.90
19039;DHT22;9652;49.014;12.052;2023-06-10T04:05:46;18.80;60.00
19039;DHT22;9652;49.014;12.052;2023-06-10T04:08:13;18.90;60.20
19039;DHT22;9652;49.014;12.052;2023-06-10T04:10:41;18.90;60.20
19039;DHT22;9652;49.014;12.052;2023-06-10T04:13:08;18.90;60.40
19039;DHT22;9652;49.014;12.052;2023-06-10T04:15:40;18.90;60.30
19039;DHT22;9652;49.014;12.052;2023-06-10T04:18:11;18.90;60.30
19039;DHT22;9652;49.014;12.052;2023-06-10T04:20:38;18.90;60.30
19039;DHT22;9652;49.014;12.052;2023-06-10T04:23:06;19.00;60.50
19039;DHT22;9652;49.014;12.052;2023-06-10T04:25:33;19.00;60.50
19039;DHT22;9652;49.014;12.052;2023-06-10T04:28:02;19.00;60.60
19039;DHT22;9652;49.014;12.052;2023-06-10T04:30:31;19.10;60.90
19039;DHT22;9652;49.014;12.052;2023-06-10T04:33:00;19.10;60.90
19039;DHT22;9652;49.014;12.052;2023-06-10T04:35:27;19.20;61.10
19039;DHT22;9652;49.014;12.052;2023-06-10T04:37:56;19.20;61.10
19039;DHT22;9652;49.014;12.052;2023-06-10T04:40:23;19.30;61.20
19039;DHT22;9652;49.014;12.052;2023-06-10T04:42:51;19.40;61.30
19039;DHT22;9652;49.014;12.052;2023-06-10T04:45:19;19.40;61.30
19039;DHT22;9652;49.014;12.052;2023-06-10T04:47:46;19.50;61.40
19039;DHT22;9652;49.014;12.052;2023-06-10T04:50:13;19.60;61.30
19039;DHT22;9652;49.014;12.052;2023-06-10T04:52:41;19.70;61.30
19039;DHT22;9652;49.014;12.052;2023-06-10T04:55:09;19.80;61.30
19039;DHT22;9652;49.014;12.052;2023-06-10T04:57:36;19.90;61.40
19039;DHT22;9652;49.014;12.052;2023-06-10T05:00:04;19.90;61.30
19039;DHT22;9652;49.014;12.052;2023-06-10T05:02:33;20.00;61.30
19039;DHT22;9652;49.014;12.052;2023-06-10T05:05:00;20.10;61.30
19039;DHT22;9652;49.014;12.052;2023-06-10T05:07:29;20.20;61.20
19039;DHT22;9652;49.014;12.052;2023-06-10T05:09:56;20.30;61.30
19039;DHT22;9652;49.014;12.052;2023-06-10T05:12:23;20.40;61.20
19039;DHT22;9652;49.014;12.052;2023-06-10T05:14:50;20.40;61.10
19039;DHT22;9652;49.014;12.052;2023-06-10T05:17:17;20.50;61.10
19039;DHT22;9652;49.014;12.052;2023-06-10T05:19:45;20.70;60.90
19039;DHT22;9652;49.014;12.052;2023-06-10T05:22:12;20.70;60.90
19039;DHT22;9652;49.014;12.052;2023-06-10T05:24:41;20.80;60.80
19039;DHT22;9652;49.014;12.052;2023-06-10T05:27:09;20.90;60.80
19039;DHT22;9652;49.014;12.052;2023-06-10T05:29:37;20.90;60.60
19039;DHT22;9652;49.014;12.052;2023-06-10T05:32:06;21.00;60.60
19039;DHT22;9652;49.014;12.052;2023-06-10T05:34:34;21.10;60.60
19039;DHT22;9652;49.014;12.052;2023-06-10T05:37:03;21.20;60.50
19039;DHT22;9652;49.014;12.052;2023-06-10T05:39:30;21.20;60.30
19039;DHT22;9652;49.014;12.052;2023-06-10T05:41:57;21.40;60.30
19039;DHT22;9652;49.014;12.052;2023-06-10T05:44:26;21.40;60.20
19039;DHT22;9652;49.014;12.052;2023-06-10T05:46:53;21.50;60.20
19039;DHT22;9652;49.014;12.052;2023-06-10T05:49:20;21.60;60.10
19039;DHT22;9652;49.014;12.052;2023-06-10T05:51:47;21.60;60.00
19039;DHT22;9652;49.014;12.052;2023-06-10T05:54:16;21.70;59.90
19039;DHT22;9652;49.014;12.052;2023-06-10T05:56:43;21.80;59.90
19039;DHT22;9652;49.014;12.052;2023-06-10T05:59:10;21.90;59.80
19039;DHT22;9652;49.014;12.052;2023-06-10T06:01:37;21.90;59.70
19039;DHT22;9652;49.014;12.052;2023-06-10T06:04:04;22.00;59.50
19039;DHT22;9652;49.014;12.052;2023-06-10T06:06:31;22.10;59.50
19039;DHT22;9652;49.014;12.052;2023-06-10T06:08:58;22.10;59.30
19039;DHT22;9652;49.014;12.052;2023-06-10T06:11:27;22.20;59.20
19039;DHT22;9652;49.014;12.052;2023-06-10T06:13:54;22.30;59.10
19039;DHT22;9652;49.014;12.052;2023-06-10T06:16:21;22.30;59.00
19039;DHT22;9652;49.014;12.052;2023-06-10T06:18:48;22.40;58.90
19039;DHT22;9652;49.014;12.052;2023-06-10T06:21:15;22.50;58.80
19039;DHT22;9652;49.014;12.052;2023-06-10T06:23:42;22.60;58.80
19039;DHT22;9652;49.014;12.052;2023-06-10T06:26:09;22.60;58.80
19039;DHT22;9652;49.014;12.052;2023-06-10T06:28:38;22.70;58.70
19039;DHT22;9652;49.014;12.052;2023-06-10T06:31:05;22.70;58.60
19039;DHT22;9652;49.014;12.052;2023-06-10T06:33:33;22.70;58.50
19039;DHT22;9652;49.014;12.052;2023-06-10T06:36:01;22.80;58.50
19039;DHT22;9652;49.014;12.052;2023-06-10T06:38:28;22.90;58.50
19039;DHT22;9652;49.014;12.052;2023-06-10T06:40:55;23.00;58.50
19039;DHT22;9652;49.014;12.052;2023-06-10T06:43:22;23.10;58.30
19039;DHT22;9652;49.014;12.052;2023-06-10T06:46:16;23.10;58.20
19039;DHT22;9652;49.014;12.052;2023-06-10T06:48:44;23.20;58.10
19039;DHT22;9652;49.014;12.052;2023-06-10T06:51:10;23.30;58.00
19039;DHT22;9652;49.014;12.052;2023-06-10T06:53:38;23.40;58.00
19039;DHT22;9652;49.014;12.052;2023-06-10T06:56:10;23.50;57.80
19039;DHT22;9652;49.014;12.052;2023-06-10T06:58:37;23.60;57.70
19039;DHT22;9652;49.014;12.052;2023-06-10T07:01:04;23.70;57.50
19039;DHT22;9652;49.014;12.052;2023-06-10T07:03:32;23.80;57.40
19039;DHT22;9652;49.014;12.052;2023-06-10T07:06:00;23.80;57.20
19039;DHT22;9652;49.014;12.052;2023-06-10T07:08:27;23.90;57.10
19039;DHT22;9652;49.014;12.052;2023-06-10T07:10:54;24.00;57.10
19039;DHT22;9652;49.014;12.052;2023-06-10T07:13:21;24.00;56.90
19039;DHT22;9652;49.014;12.052;2023-06-10T07:15:48;24.10;56.90
19039;DHT22;9652;49.014;12.052;2023-06-10T07:18:15;24.20;56.90
19039;DHT22;9652;49.014;12.052;2023-06-10T07:20:44;24.40;56.70
19039;DHT22;9652;49.014;12.052;2023-06-10T07:23:11;24.40;56.30
19039;DHT22;9652;49.014;12.052;2023-06-10T07:25:38;24.50;56.20
19039;DHT22;9652;49.014;12.052;2023-06-10T07:28:07;24.60;56.00
19039;DHT22;9652;49.014;12.052;2023-06-10T07:30:34;24.70;56.00
19039;DHT22;9652;49.014;12.052;2023-06-10T07:33:01;24.70;55.80
19039;DHT22;9652;49.014;12.052;2023-06-10T07:35:28;24.80;55.60
19039;DHT22;9652;49.014;12.052;2023-06-10T07:37:56;24.90;55.40
19039;DHT22;9652;49.014;12.052;2023-06-10T07:40:24;25.00;55.20
19039;DHT22;9652;49.014;12.052;2023-06-10T07:42:51;25.10;54.90
19039;DHT22;9652;49.014;12.052;2023-06-10T07:45:18;25.20;54.70
19039;DHT22;9652;49.014;12.052;2023-06-10T07:47:45;25.20;54.30
19039;DHT22;9652;49.014;12.052;2023-06-10T07:50:12;25.30;54.10
19039;DHT22;9652;49.014;12.052;2023-06-10T07:52:39;25.30;54.10
19039;DHT22;9652;49.014;12.052;2023-06-10T07:55:08;25.30;54.10
19039;DHT22;9652;49.014;12.052;2023-06-10T07:57:36;25.30;53.90
19039;DHT22;9652;49.014;12.052;2023-06-10T08:00:05;25.40;53.80
19039;DHT22;9652;49.014;12.052;2023-06-10T08:02:39;25.50;53.70
19039;DHT22;9652;49.014;12.052;2023-06-10T08:05:07;25.50;53.70
19039;DHT22;9652;49.014;12.052;2023-06-10T08:07:34;25.60;53.60
19039;DHT22;9652;49.014;12.052;2023-06-10T08:10:01;25.70;53.50
19039;DHT22;9652;49.014;12.052;2023-06-10T08:12:31;25.70;53.30
19039;DHT22;9652;49.014;12.052;2023-06-10T08:14:58;25.80;53.10
19039;DHT22;9652;49.014;12.052;2023-06-10T08:17:25;25.80;53.00
19039;DHT22;9652;49.014;12.052;2023-06-10T08:19:52;25.90;52.80
19039;DHT22;9652;49.014;12.052;2023-06-10T08:22:19;25.90;52.60
19039;DHT22;9652;49.014;12.052;2023-06-10T08:24:46;25.90;52.40
19039;DHT22;9652;49.014;12.052;2023-06-10T08:27:14;26.00;52.40
19039;DHT22;9652;49.014;12.052;2023-06-10T08:29:42;26.00;52.40
19039;DHT22;9652;49.014;12.052;2023-06-10T08:32:09;26.00;52.40
19039;DHT22;9652;49.014;12.052;2023-06-10T08:34:36;26.10;52.60
19039;DHT22;9652;49.014;12.052;2023-06-10T08:37:04;26.30;52.90
19039;DHT22;9652;49.014;12.052;2023-06-10T08:39:31;26.40;52.80
19039;DHT22;9652;49.014;12.052;2023-06-10T08:42:07;26.50;52.40
19039;DHT22;9652;49.014;12.052;2023-06-10T08:44:39;26.70;51.70
19039;DHT22;9652;49.014;12.052;2023-06-10T08:47:13;26.80;51.80
19039;DHT22;9652;49.014;12.052;2023-06-10T08:49:44;27.00;51.30
19039;DHT22;9652;49.014;12.052;2023-06-10T08:52:14;27.10;51.50
19039;DHT22;9652;49.014;12.052;2023-06-10T08:54:45;27.30;51.10
19039;DHT22;9652;49.014;12.052;2023-06-10T08:57:15;27.50;51.30
19039;DHT22;9652;49.014;12.052;2023-06-10T08:59:46;27.60;51.10
19039;DHT22;9652;49.014;12.052;2023-06-10T09:02:15;27.80;50.80
19039;DHT22;9652;49.014;12.052;2023-06-10T09:04:46;27.90;50.30
19039;DHT22;9652;49.014;12.052;2023-06-10T09:07:15;28.00;50.20
19039;DHT22;9652;49.014;12.052;2023-06-10T09:09:43;28.20;50.10
19039;DHT22;9652;49.014;12.052;2023-06-10T09:12:12;28.20;49.80
19039;DHT22;9652;49.014;12.052;2023-06-10T09:14:40;28.30;49.80
19039;DHT22;9652;49.014;12.052;2023-06-10T09:17:08;28.40;49.90
19039;DHT22;9652;49.014;12.052;2023-06-10T09:19:37;28.50;49.90
19039;DHT22;9652;49.014;12.052;2023-06-10T09:22:05;28.70;50.30
19039;DHT22;9652;49.014;12.052;2023-06-10T09:24:32;28.90;49.80
19039;DHT22;9652;49.014;12.052;2023-06-10T09:27:03;29.10;49.50
19039;DHT22;9652;49.014;12.052;2023-06-10T09:29:31;29.30;48.60
19039;DHT22;9652;49.014;12.052;2023-06-10T09:32:01;29.40;48.40
19039;DHT22;9652;49.014;12.052;2023-06-10T09:34:28;29.50;48.10
19039;DHT22;9652;49.014;12.052;2023-06-10T09:36:57;29.60;48.00
19039;DHT22;9652;49.014;12.052;2023-06-10T09:39:24;29.70;47.80
19039;DHT22;9652;49.014;12.052;2023-06-10T09:41:51;29.80;47.50
19039;DHT22;9652;49.014;12.052;2023-06-10T09:44:19;29.90;47.30
19039;DHT22;9652;49.014;12.052;2023-06-10T09:46:50;30.00;47.10
19039;DHT22;9652;49.014;12.052;2023-06-10T09:49:17;30.00;46.80
19039;DHT22;9652;49.014;12.052;2023-06-10T09:51:49;30.10;46.50
19039;DHT22;9652;49.014;12.052;2023-06-10T09:54:19;30.20;45.70
19039;DHT22;9652;49.014;12.052;2023-06-10T09:56:47;30.20;45.70
19039;DHT22;9652;49.014;12.052;2023-06-10T09:59:15;30.20;45.60
19039;DHT22;9652;49.014;12.052;2023-06-10T10:01:42;30.20;45.30
19039;DHT22;9652;49.014;12.052;2023-06-10T10:04:09;30.20;45.30
19039;DHT22;9652;49.014;12.052;2023-06-10T10:06:37;30.20;45.30
19039;DHT22;9652;49.014;12.052;2023-06-10T10:09:04;30.20;45.20
19039;DHT22;9652;49.014;12.052;2023-06-10T10:11:34;30.20;45.20
19039;DHT22;9652;49.014;12.052;2023-06-10T10:14:04;30.20;45.00
19039;DHT22;9652;49.014;12.052;2023-06-10T10:16:36;30.10;45.00
19039;DHT22;9652;49.014;12.052;2023-06-10T10:19:08;30.10;44.80
19039;DHT22;9652;49.014;12.052;2023-06-10T10:21:44;30.10;44.80
19039;DHT22;9652;49.014;12.052;2023-06-10T10:24:21;30.00;44.40
19039;DHT22;9652;49.014;12.052;2023-06-10T10:26:58;29.90;44.40
19039;DHT22;9652;49.014;12.052;2023-06-10T10:29:38;29.80;44.10
19039;DHT22;9652;49.014;12.052;2023-06-10T10:32:07;29.70;44.40
19039;DHT22;9652;49.014;12.052;2023-06-10T10:34:42;29.60;44.70
19039;DHT22;9652;49.014;12.052;2023-06-10T10:37:14;29.30;44.70
19039;DHT22;9652;49.014;12.052;2023-06-10T10:39:41;29.30;45.10
19039;DHT22;9652;49.014;12.052;2023-06-10T10:42:10;29.10;45.30
19039;DHT22;9652;49.014;12.052;2023-06-10T10:44:39;29.10;45.60
19039;DHT22;9652;49.014;12.052;2023-06-10T10:47:08;29.10;45.70
19039;DHT22;9652;49.014;12.052;2023-06-10T10:49:37;29.10;45.70
19039;DHT22;9652;49.014;12.052;2023-06-10T10:52:11;29.10;45.80
19039;DHT22;9652;49.014;12.052;2023-06-10T10:54:43;29.20;45.80
19039;DHT22;9652;49.014;12.052;2023-06-10T10:57:17;29.30;45.60
19039;DHT22;9652;49.014;12.052;2023-06-10T10:59:54;29.40;45.40
19039;DHT22;9652;49.014;12.052;2023-06-10T11:02:41;29.40;45.40
19039;DHT22;9652;49.014;12.052;2023-06-10T11:05:10;29.50;44.90
19039;DHT22;9652;49.014;12.052;2023-06-10T11:07:52;29.40;45.00
19039;DHT22;9652;49.014;12.052;2023-06-10T11:10:29;29.40;44.80
19039;DHT22;9652;49.014;12.052;2023-06-10T11:12:58;29.40;44.90
19039;DHT22;9652;49.014;12.052;2023-06-10T11:15:27;29.30;45.10
19039;DHT22;9652;49.014;12.052;2023-06-10T11:18:14;29.20;45.10
19039;DHT22;9652;49.014;12.052;2023-06-10T11:20:55;29.10;45.20
19039;DHT22;9652;49.014;12.052;2023-06-10T11:23:34;29.10;45.50
19039;DHT22;9652;49.014;12.052;2023-06-10T11:26:18;29.10;45.70
19039;DHT22;9652;49.014;12.052;2023-06-10T11:29:08;29.30;45.60
19039;DHT22;9652;49.014;12.052;2023-06-10T11:31:40;29.50;45.70
19039;DHT22;9652;49.014;12.052;2023-06-10T11:34:09;29.70;45.70
19039;DHT22;9652;49.014;12.052;2023-06-10T11:36:38;29.90;45.50
19039;DHT22;9652;49.014;12.052;2023-06-10T11:39:08;30.00;45.00
19039;DHT22;9652;49.014;12.052;2023-06-10T11:41:38;30.10;44.80
19039;DHT22;9652;49.014;12.052;2023-06-10T11:44:09;30.20;44.60
19039;DHT22;9652;49.014;12.052;2023-06-10T11:46:38;30.30;44.30
19039;DHT22;9652;49.014;12.052;2023-06-10T11:49:08;30.30;44.10
19039;DHT22;9652;49.014;12.052;2023-06-10T11:51:36;30.30;44.00
19039;DHT22;9652;49.014;12.052;2023-06-10T11:54:08;30.20;43.90
19039;DHT22;9652;49.014;12.052;2023-06-10T11:56:35;30.10;43.80
19039;DHT22;9652;49.014;12.052;2023-06-10T11:59:04;30.00;44.30
19039;DHT22;9652;49.014;12.052;2023-06-10T12:01:35;29.90;44.70
19039;DHT22;9652;49.014;12.052;2023-06-10T12:04:04;29.80;44.70
19039;DHT22;9652;49.014;12.052;2023-06-10T12:06:43;29.70;44.90
19039;DHT22;9652;49.014;12.052;2023-06-10T12:09:19;29.70;44.80
19039;DHT22;9652;49.014;12.052;2023-06-10T12:11:51;29.80;44.70
19039;DHT22;9652;49.014;12.052;2023-06-10T12:14:50;29.80;44.80
19039;DHT22;9652;49.014;12.052;2023-06-10T12:17:36;29.90;44.50
19039;DHT22;9652;49.014;12.052;2023-06-10T12:20:05;30.10;44.30
19039;DHT22;9652;49.014;12.052;2023-06-10T12:22:37;30.30;44.60
19039;DHT22;9652;49.014;12.052;2023-06-10T12:25:06;30.40;44.30
19039;DHT22;9652;49.014;12.052;2023-06-10T12:27:34;30.70;44.60
19039;DHT22;9652;49.014;12.052;2023-06-10T12:30:04;30.90;44.40
19039;DHT22;9652;49.014;12.052;2023-06-10T12:32:38;31.10;44.00
19039;DHT22;9652;49.014;12.052;2023-06-10T12:35:07;31.40;43.20
19039;DHT22;9652;49.014;12.052;2023-06-10T12:37:35;31.50;43.00
19039;DHT22;9652;49.014;12.052;2023-06-10T12:40:04;31.70;42.90
19039;DHT22;9652;49.014;12.052;2023-06-10T12:42:33;31.90;42.80
19039;DHT22;9652;49.014;12.052;2023-06-10T12:45:00;32.00;42.70
19039;DHT22;9652;49.014;12.052;2023-06-10T12:47:31;32.30;42.60
19039;DHT22;9652;49.014;12.052;2023-06-10T12:50:02;32.40;42.10
19039;DHT22;9652;49.014;12.052;2023-06-10T12:52:30;32.60;42.00
19039;DHT22;9652;49.014;12.052;2023-06-10T12:54:58;32.90;42.10
19039;DHT22;9652;49.014;12.052;2023-06-10T12:57:26;33.10;41.60
19039;DHT22;9652;49.014;12.052;2023-06-10T12:59:53;33.30;41.10
19039;DHT22;9652;49.014;12.052;2023-06-10T13:02:22;33.40;40.50
19039;DHT22;9652;49.014;12.052;2023-06-10T13:04:50;33.50;39.90
19039;DHT22;9652;49.014;12.052;2023-06-10T13:07:18;33.50;39.50
19039;DHT22;9652;49.014;12.052;2023-06-10T13:09:48;33.50;39.20
19039;DHT22;9652;49.014;12.052;2023-06-10T13:12:15;33.40;39.30
19039;DHT22;9652;49.014;12.052;2023-06-10T13:14:43;33.40;39.40
19039;DHT22;9652;49.014;12.052;2023-06-10T13:17:10;33.40;39.60
19039;DHT22;9652;49.014;12.052;2023-06-10T13:19:37;33.40;39.50
19039;DHT22;9652;49.014;12.052;2023-06-10T13:22:04;33.40;39.90
19039;DHT22;9652;49.014;12.052;2023-06-10T13:24:33;33.50;40.30
19039;DHT22;9652;49.014;12.052;2023-06-10T13:27:00;33.80;40.50
19039;DHT22;9652;49.014;12.052;2023-06-10T13:29:27;34.10;40.30
19039;DHT22;9652;49.014;12.052;2023-06-10T13:31:54;34.30;39.40
19039;DHT22;9652;49.014;12.052;2023-06-10T13:34:21;34.50;38.70
19039;DHT22;9652;49.014;12.052;2023-06-10T13:36:48;34.50;38.00
19039;DHT22;9652;49.014;12.052;2023-06-10T13:39:15;34.50;37.70
19039;DHT22;9652;49.014;12.052;2023-06-10T13:41:43;34.30;37.70
19039;DHT22;9652;49.014;12.052;2023-06-10T13:44:10;34.20;38.10
19039;DHT22;9652;49.014;12.052;2023-06-10T13:46:37;34.00;38.30
19039;DHT22;9652;49.014;12.052;2023-06-10T13:49:04;33.80;38.40
19039;DHT22;9652;49.014;12.052;2023-06-10T13:51:31;33.60;38.40
19039;DHT22;9652;49.014;12.052;2023-06-10T13:53:58;33.40;39.00
19039;DHT22;9652;49.014;12.052;2023-06-10T13:56:25;33.30;40.00
19039;DHT22;9652;49.014;12.052;2023-06-10T13:58:54;33.10;47.50
19039;DHT22;9652;49.014;12.052;2023-06-10T14:01:21;32.70;50.70
19039;DHT22;9652;49.014;12.052;2023-06-10T14:03:48;32.10;52.10
19039;DHT22;9652;49.014;12.052;2023-06-10T14:06:15;31.50;53.50
19039;DHT22;9652;49.014;12.052;2023-06-10T14:08:44;30.80;55.10
19039;DHT22;9652;49.014;12.052;2023-06-10T14:11:11;30.30;56.70
19039;DHT22;9652;49.014;12.052;2023-06-10T14:13:38;29.70;57.80
19039;DHT22;9652;49.014;12.052;2023-06-10T14:16:06;29.30;59.50
19039;DHT22;9652;49.014;12.052;2023-06-10T14:18:33;28.90;60.00
19039;DHT22;9652;49.014;12.052;2023-06-10T14:21:00;28.60;60.90
19039;DHT22;9652;49.014;12.052;2023-06-10T14:23:27;28.30;62.00
19039;DHT22;9652;49.014;12.052;2023-06-10T14:25:54;28.10;63.00
19039;DHT22;9652;49.014;12.052;2023-06-10T14:28:21;27.90;64.30
19039;DHT22;9652;49.014;12.052;2023-06-10T14:30:49;27.70;66.30
19039;DHT22;9652;49.014;12.052;2023-06-10T14:33:18;27.60;66.30
19039;DHT22;9652;49.014;12.052;2023-06-10T14:35:45;27.50;66.60
19039;DHT22;9652;49.014;12.052;2023-06-10T14:38:12;27.50;67.00
19039;DHT22;9652;49.014;12.052;2023-06-10T14:40:39;27.30;67.40
19039;DHT22;9652;49.014;12.052;2023-06-10T14:43:06;27.30;68.00
19039;DHT22;9652;49.014;12.052;2023-06-10T14:45:35;27.20;68.40
19039;DHT22;9652;49.014;12.052;2023-06-10T14:48:02;27.10;68.60
19039;DHT22;9652;49.014;12.052;2023-06-10T14:50:31;27.00;68.20
19039;DHT22;9652;49.014;12.052;2023-06-10T14:52:58;27.00;68.60
19039;DHT22;9652;49.014;12.052;2023-06-10T14:55:25;26.90;68.90
19039;DHT22;9652;49.014;12.052;2023-06-10T14:57:52;26.80;69.40
19039;DHT22;9652;49.014;12.052;2023-06-10T15:00:20;26.80;69.90
19039;DHT22;9652;49.014;12.052;2023-06-10T15:02:48;26.70;69.70
19039;DHT22;9652;49.014;12.052;2023-06-10T15:05:16;26.70;70.20
19039;DHT22;9652;49.014;12.052;2023-06-10T15:07:46;26.70;71.60
19039;DHT22;9652;49.014;12.052;2023-06-10T15:10:13;26.90;74.10
19039;DHT22;9652;49.014;12.052;2023-06-10T15:12:41;27.10;75.30
19039;DHT22;9652;49.014;12.052;2023-06-10T15:15:08;27.40;76.70
19039;DHT22;9652;49.014;12.052;2023-06-10T15:17:36;27.70;78.90
19039;DHT22;9652;49.014;12.052;2023-06-10T15:20:04;28.20;79.70
19039;DHT22;9652;49.014;12.052;2023-06-10T15:22:32;28.70;80.20
19039;DHT22;9652;49.014;12.052;2023-06-10T15:25:00;29.30;79.60
19039;DHT22;9652;49.014;12.052;2023-06-10T15:27:27;29.80;77.60
19039;DHT22;9652;49.014;12.052;2023-06-10T15:29:54;30.20;75.00
19039;DHT22;9652;49.014;12.052;2023-06-10T15:32:21;30.60;72.60
19039;DHT22;9652;49.014;12.052;2023-06-10T15:34:48;30.80;70.00
19039;DHT22;9652;49.014;12.052;2023-06-10T15:37:18;30.90;67.10
19039;DHT22;9652;49.014;12.052;2023-06-10T15:39:46;31.10;65.00
19039;DHT22;9652;49.014;12.052;2023-06-10T15:42:15;31.10;63.10